Time;durP1;ratioP1;P1;durP2;ratioP2;P2;SDS_P1;SDS_P2;PMS_P1;PMS_P2;Temp;Humidity;BMP_temperature;BMP_pressure;BME280_temperature;BME280_humidity;BME280_pressure;Samples;Min_cycle;Max_cycle;Signal;HPM_P1;HPM_P2
2022/03/05 00:00:20;;;;;;;18.40;11.85;;;2.30;99.90;;;;;;5094891;28;20032;-75
2022/03/05 00:02:46;;;;;;;16.08;9.82;;;1.50;99.90;;;;;;5059365;28;20046;-75
2022/03/05 00:05:13;;;;;;;12.93;9.45;;;1.50;99.90;;;;;;5075698;28;20365;-75
2022/03/05 00:07:39;;;;;;;15.15;9.35;;;1.50;99.90;;;;;;5094108;28;20040;-75
2022/03/05 00:10:05;;;;;;;15.27;9.18;;;1.40;99.90;;;;;;5094780;28;20036;-75
2022/03/05 00:12:31;;;;;;;14.38;8.02;;;1.40;99.90;;;;;;5094212;28;20373;-75
2022/03/05 00:14:56;;;;;;;12.98;8.48;;;1.40;99.90;;;;;;5076075;28;20039;-75
2022/03/05 00:17:23;;;;;;;12.63;8.30;;;1.40;99.90;;;;;;5076060;28;20446;-75
2022/03/05 00:19:48;;;;;;;15.07;8.15;;;1.40;99.90;;;;;;5075826;28;20047;-76
2022/03/05 00:22:14;;;;;;;12.77;8.43;;;1.40;99.90;;;;;;5057881;28;20416;-75
2022/03/05 00:24:40;;;;;;;13.82;8.65;;;1.40;99.90;;;;;;5094062;28;20040;-76
2022/03/05 00:27:06;;;;;;;12.25;7.75;;;1.40;99.90;;;;;;5094188;28;20044;-76
2022/03/05 00:29:31;;;;;;;12.27;8.02;;;1.40;99.90;;;;;;5076104;28;20400;-76
2022/03/05 00:31:57;;;;;;;12.80;8.15;;;1.40;99.90;;;;;;5093930;28;20133;-75
2022/03/05 00:34:23;;;;;;;13.63;8.20;;;1.80;99.90;;;;;;5093825;28;20503;-76
2022/03/05 00:36:48;;;;;;;12.55;7.75;;;1.30;99.90;;;;;;5093246;28;20055;-76
2022/03/05 00:39:14;;;;;;;14.27;8.30;;;1.30;99.90;;;;;;5091095;28;20123;-76
2022/03/05 00:41:40;;;;;;;11.10;8.13;;;1.90;99.90;;;;;;5093902;28;20049;-76
2022/03/05 00:44:06;;;;;;;14.55;8.13;;;1.60;99.90;;;;;;5072382;28;20170;-74
2022/03/05 00:46:32;;;;;;;15.52;8.90;;;1.30;99.90;;;;;;5056100;28;20481;-73
2022/03/05 00:48:58;;;;;;;12.68;8.35;;;1.30;99.90;;;;;;5073532;28;20041;-75
2022/03/05 00:51:25;;;;;;;11.80;7.93;;;1.30;99.90;;;;;;5055620;28;20055;-75
2022/03/05 00:53:50;;;;;;;15.02;8.35;;;1.20;99.90;;;;;;5051339;28;20412;-74
2022/03/05 00:56:16;;;;;;;14.23;8.98;;;1.20;99.90;;;;;;5085316;28;20040;-73
2022/03/05 00:58:42;;;;;;;12.05;8.07;;;1.20;99.90;;;;;;5074619;28;20043;-73
2022/03/05 01:01:08;;;;;;;13.60;8.18;;;1.70;99.90;;;;;;5093563;28;20040;-73
2022/03/05 01:03:33;;;;;;;13.52;8.50;;;1.20;99.90;;;;;;5071821;28;20051;-73
2022/03/05 01:05:59;;;;;;;13.70;8.13;;;1.20;99.90;;;;;;5073199;28;20076;-73
2022/03/05 01:08:26;;;;;;;14.18;8.93;;;1.20;99.90;;;;;;5062322;28;20377;-73
2022/03/05 01:10:52;;;;;;;12.38;8.38;;;1.10;99.90;;;;;;5093324;28;20472;-73
2022/03/05 01:13:17;;;;;;;13.30;8.52;;;1.10;99.90;;;;;;5091991;28;20048;-73
2022/03/05 01:15:43;;;;;;;13.75;8.50;;;1.10;99.90;;;;;;5074774;28;20040;-73
2022/03/05 01:18:09;;;;;;;14.48;8.57;;;1.10;99.90;;;;;;5058553;28;20040;-73
2022/03/05 01:20:35;;;;;;;14.25;9.05;;;1.50;99.90;;;;;;5093110;28;20097;-73
2022/03/05 01:23:00;;;;;;;14.27;9.05;;;1.10;99.90;;;;;;5057962;28;20036;-73
2022/03/05 01:25:29;;;;;;;11.88;8.25;;;1.10;99.90;;;;;;5074867;28;20093;-73
2022/03/05 01:27:55;;;;;;;13.70;9.05;;;1.10;99.90;;;;;;5091880;28;20141;-73
2022/03/05 01:30:21;;;;;;;16.52;8.32;;;1.10;99.90;;;;;;5074380;28;20399;-73
2022/03/05 01:32:46;;;;;;;15.25;8.73;;;1.10;99.90;;;;;;5093067;28;20117;-73
2022/03/05 01:35:12;;;;;;;15.70;9.43;;;1.60;99.90;;;;;;5092529;28;20062;-73
2022/03/05 01:37:38;;;;;;;13.52;9.25;;;1.10;99.90;;;;;;5092576;28;20428;-73
2022/03/05 01:40:05;;;;;;;13.77;8.30;;;1.10;99.90;;;;;;5074210;28;20044;-73
2022/03/05 01:42:30;;;;;;;13.43;9.02;;;1.10;99.90;;;;;;5074511;28;20130;-73
2022/03/05 01:44:56;;;;;;;15.20;8.98;;;1.40;99.90;;;;;;5091905;28;20553;-73
2022/03/05 01:47:22;;;;;;;16.38;9.18;;;1.10;99.90;;;;;;5058011;28;20046;-73
2022/03/05 01:49:47;;;;;;;16.27;8.80;;;1.10;99.90;;;;;;5058310;28;20051;-73
2022/03/05 01:52:16;;;;;;;15.25;9.02;;;1.00;99.90;;;;;;5091676;28;20046;-73
2022/03/05 01:54:42;;;;;;;15.65;9.15;;;1.10;99.90;;;;;;5071397;28;20388;-73
2022/03/05 01:57:10;;;;;;;15.10;8.80;;;1.20;99.90;;;;;;5072681;28;20039;-73
2022/03/05 01:59:35;;;;;;;15.02;8.50;;;1.10;99.90;;;;;;5092617;28;20124;-73
2022/03/05 02:02:01;;;;;;;16.08;8.35;;;1.00;99.90;;;;;;5073283;28;20101;-73
2022/03/05 02:04:27;;;;;;;13.43;8.80;;;1.00;99.90;;;;;;5073914;28;20036;-73
2022/03/05 02:06:53;;;;;;;13.18;8.60;;;1.00;99.90;;;;;;5092745;28;20415;-73
2022/03/05 02:09:19;;;;;;;11.85;8.02;;;1.00;99.90;;;;;;5064472;28;20408;-73
2022/03/05 02:11:45;;;;;;;12.25;8.68;;;1.00;99.90;;;;;;5054510;28;20115;-73
2022/03/05 02:14:11;;;;;;;14.77;8.23;;;1.00;99.90;;;;;;5056276;28;20111;-73
2022/03/05 02:16:37;;;;;;;14.82;8.52;;;1.00;99.90;;;;;;5068219;28;20526;-73
2022/03/05 02:19:04;;;;;;;15.05;8.13;;;1.00;99.90;;;;;;5073289;28;20040;-73
2022/03/05 02:21:30;;;;;;;13.18;8.60;;;1.40;99.90;;;;;;5057584;28;20480;-73
2022/03/05 02:23:56;;;;;;;13.82;8.30;;;0.90;99.90;;;;;;5074038;28;20039;-73
2022/03/05 02:26:22;;;;;;;13.98;8.43;;;1.00;99.90;;;;;;5074654;28;20105;-73
2022/03/05 02:28:48;;;;;;;12.57;8.05;;;0.90;99.90;;;;;;5057564;28;20040;-73
2022/03/05 02:31:14;;;;;;;13.65;8.20;;;0.90;99.90;;;;;;5074156;28;20036;-73
2022/03/05 02:33:41;;;;;;;13.68;8.52;;;0.40;99.90;;;;;;5090925;28;20455;-73
2022/03/05 02:36:07;;;;;;;13.65;8.18;;;0.90;99.90;;;;;;5087533;28;20095;-73
2022/03/05 02:38:33;;;;;;;13.32;8.40;;;0.90;99.90;;;;;;5090842;28;20044;-73
2022/03/05 02:41:02;;;;;;;13.10;8.73;;;1.10;99.90;;;;;;5092365;28;20047;-73
2022/03/05 02:43:28;;;;;;;12.88;8.50;;;0.90;99.90;;;;;;5074009;28;20093;-73
2022/03/05 02:45:54;;;;;;;13.05;8.40;;;1.00;99.90;;;;;;5092424;28;20094;-73
2022/03/05 02:48:21;;;;;;;13.88;8.18;;;0.90;99.90;;;;;;5052463;28;20036;-73
2022/03/05 02:50:48;;;;;;;13.55;8.55;;;0.80;99.90;;;;;;5080308;28;20040;-73
2022/03/05 02:53:14;;;;;;;14.55;8.60;;;0.80;99.90;;;;;;5090817;28;20055;-74
2022/03/05 02:55:40;;;;;;;16.20;9.25;;;0.80;99.90;;;;;;5050344;28;20037;-73
2022/03/05 02:58:06;;;;;;;15.05;8.43;;;0.80;99.90;;;;;;5072105;28;20107;-73
2022/03/05 03:00:33;;;;;;;13.73;8.60;;;0.80;99.90;;;;;;5053950;28;20505;-73
2022/03/05 03:02:59;;;;;;;16.38;9.55;;;0.70;99.90;;;;;;5072829;28;20062;-73
2022/03/05 03:05:25;;;;;;;13.82;9.65;;;0.70;99.90;;;;;;5077445;28;20032;-73
2022/03/05 03:07:51;;;;;;;13.48;8.95;;;0.70;99.90;;;;;;5095961;28;20047;-73
2022/03/05 03:10:17;;;;;;;13.45;8.73;;;1.00;99.90;;;;;;5094429;28;20495;-73
2022/03/05 03:12:43;;;;;;;15.57;9.30;;;0.60;99.90;;;;;;5094954;28;20123;-73
2022/03/05 03:15:14;;;;;;;12.43;8.70;;;0.60;99.90;;;;;;5058180;28;20120;-74
2022/03/05 03:17:44;;;;;;;12.55;8.55;;;0.60;99.90;;;;;;5077500;28;20040;-73
2022/03/05 03:20:12;;;;;;;14.57;9.35;;;0.60;99.90;;;;;;5077230;28;20036;-73
2022/03/05 03:22:39;;;;;;;14.45;8.63;;;0.60;99.90;;;;;;5095664;28;20040;-73
2022/03/05 03:25:06;;;;;;;12.50;8.52;;;0.60;99.90;;;;;;5076610;28;20040;-73
2022/03/05 03:27:31;;;;;;;13.90;9.00;;;0.60;99.90;;;;;;5094509;28;20044;-73
2022/03/05 03:29:57;;;;;;;14.43;9.40;;;0.60;99.90;;;;;;5076575;28;20134;-73
2022/03/05 03:32:23;;;;;;;13.52;8.90;;;0.60;99.90;;;;;;5077142;28;20150;-73
2022/03/05 03:34:49;;;;;;;13.85;8.75;;;0.60;99.90;;;;;;5076834;28;20040;-73
2022/03/05 03:37:15;;;;;;;13.02;8.70;;;0.50;99.90;;;;;;5094859;28;20056;-73
2022/03/05 03:39:41;;;;;;;15.35;9.52;;;0.50;99.90;;;;;;5094928;28;20040;-73
2022/03/05 03:42:07;;;;;;;17.08;8.20;;;0.90;99.90;;;;;;5075757;28;20093;-73
2022/03/05 03:44:32;;;;;;;14.30;8.88;;;0.60;99.90;;;;;;5093547;28;20047;-73
2022/03/05 03:46:58;;;;;;;13.68;8.75;;;0.50;99.90;;;;;;5076961;28;20116;-73
2022/03/05 03:49:24;;;;;;;12.95;8.38;;;0.50;99.90;;;;;;5076451;28;20048;-73
2022/03/05 03:51:50;;;;;;;13.23;8.20;;;0.50;99.90;;;;;;5076475;28;20048;-75
2022/03/05 03:54:16;;;;;;;14.63;9.00;;;0.50;99.90;;;;;;5076624;28;20092;-72
2022/03/05 03:56:41;;;;;;;13.13;8.43;;;0.60;99.90;;;;;;5076837;28;20047;-72
2022/03/05 03:59:07;;;;;;;15.05;8.48;;;0.40;99.90;;;;;;5093255;28;20044;-72
2022/03/05 04:01:33;;;;;;;11.13;7.90;;;0.50;99.90;;;;;;5076556;28;20046;-72
2022/03/05 04:03:59;;;;;;;13.57;8.35;;;0.50;99.90;;;;;;5094632;28;20052;-72
2022/03/05 04:06:25;;;;;;;12.55;8.38;;;0.50;99.90;;;;;;5093323;28;20046;-72
2022/03/05 04:08:50;;;;;;;15.30;9.30;;;0.50;99.90;;;;;;5075510;28;20083;-72
2022/03/05 04:11:20;;;;;;;12.40;7.68;;;0.40;99.90;;;;;;5076677;28;20051;-72
2022/03/05 04:13:47;;;;;;;13.90;8.30;;;0.40;99.90;;;;;;5093669;28;20040;-72
2022/03/05 04:16:13;;;;;;;13.48;8.23;;;0.40;99.90;;;;;;5082550;28;20468;-72
2022/03/05 04:18:40;;;;;;;13.25;8.05;;;0.50;99.90;;;;;;5073016;28;20124;-72
2022/03/05 04:21:09;;;;;;;13.40;7.88;;;1.10;99.90;;;;;;5073005;28;20070;-72
2022/03/05 04:23:34;;;;;;;11.98;8.25;;;0.90;99.90;;;;;;5068035;28;20491;-72
2022/03/05 04:26:01;;;;;;;11.43;7.82;;;0.40;99.90;;;;;;5075575;28;20042;-72
2022/03/05 04:28:26;;;;;;;12.70;7.53;;;0.40;99.90;;;;;;5065797;28;20511;-72
2022/03/05 04:30:52;;;;;;;11.68;7.88;;;0.30;99.90;;;;;;5075332;28;20051;-72
2022/03/05 04:33:18;;;;;;;11.55;7.93;;;0.30;99.90;;;;;;5092169;28;20051;-72
2022/03/05 04:35:44;;;;;;;9.73;7.28;;;0.30;99.90;;;;;;5092657;28;20044;-72
2022/03/05 04:38:09;;;;;;;12.10;7.03;;;0.30;99.90;;;;;;5075621;28;20127;-72
2022/03/05 04:40:35;;;;;;;13.88;7.68;;;0.30;99.90;;;;;;5075903;28;20441;-72
2022/03/05 04:43:09;;;;;;;14.98;7.50;;;0.30;99.90;;;;;;5055651;28;20040;-72
2022/03/05 04:45:34;;;;;;;11.50;7.63;;;0.70;99.90;;;;;;5055729;28;20429;-72
2022/03/05 04:48:00;;;;;;;14.25;7.57;;;0.80;99.90;;;;;;5060138;28;20133;-72
2022/03/05 04:50:28;;;;;;;13.60;7.63;;;0.30;99.90;;;;;;5055860;28;20044;-72
2022/03/05 04:52:54;;;;;;;13.02;7.00;;;0.30;99.90;;;;;;5093097;28;20032;-72
2022/03/05 04:55:20;;;;;;;13.27;7.82;;;0.20;99.90;;;;;;5093888;28;20491;-72
2022/03/05 04:57:48;;;;;;;13.07;7.43;;;0.20;99.90;;;;;;5058800;28;20917;-72
2022/03/05 05:00:15;;;;;;;12.25;7.47;;;0.30;99.90;;;;;;5075699;28;20376;-72
2022/03/05 05:02:44;;;;;;;10.20;6.65;;;0.60;99.90;;;;;;5071839;28;20059;-72
2022/03/05 05:05:17;;;;;;;11.70;8.23;;;0.20;99.90;;;;;;5055330;28;20082;-72
2022/03/05 05:07:43;;;;;;;9.95;6.93;;;0.20;99.90;;;;;;5083696;28;20051;-72
2022/03/05 05:10:11;;;;;;;11.00;6.93;;;0.20;99.90;;;;;;5092163;28;20040;-72
2022/03/05 05:12:42;;;;;;;13.65;7.72;;;0.20;99.90;;;;;;5071649;28;20041;-73
2022/03/05 05:15:11;;;;;;;10.32;7.15;;;0.10;99.90;;;;;;5073022;28;20032;-72
2022/03/05 05:17:38;;;;;;;12.45;7.00;;;0.10;99.90;;;;;;5063395;28;20044;-72
2022/03/05 05:20:05;;;;;;;11.18;7.03;;;0.10;99.90;;;;;;5038390;28;20053;-72
2022/03/05 05:22:32;;;;;;;12.90;7.35;;;0.10;99.90;;;;;;5055018;28;20040;-72
2022/03/05 05:24:58;;;;;;;14.70;7.57;;;0.10;99.90;;;;;;5085640;28;20050;-72
2022/03/05 05:27:24;;;;;;;14.27;7.68;;;0.10;99.90;;;;;;5092366;28;20051;-72
2022/03/05 05:29:50;;;;;;;11.27;7.38;;;0.10;99.90;;;;;;5093102;28;20036;-72
2022/03/05 05:32:17;;;;;;;11.38;6.40;;;0.10;99.90;;;;;;5074533;28;20083;-72
2022/03/05 05:34:46;;;;;;;10.23;6.80;;;0.10;99.90;;;;;;5074824;28;20502;-72
2022/03/05 05:37:12;;;;;;;11.73;7.13;;;0.10;99.90;;;;;;5074456;28;20052;-72
2022/03/05 05:39:38;;;;;;;10.95;7.05;;;0.10;99.90;;;;;;5074542;28;20039;-72
2022/03/05 05:42:04;;;;;;;13.23;7.72;;;0.10;99.90;;;;;;5073552;28;20127;-72
2022/03/05 05:44:30;;;;;;;13.52;7.63;;;0.10;99.90;;;;;;5092603;28;20448;-72
2022/03/05 05:46:56;;;;;;;10.85;6.40;;;0.10;99.90;;;;;;5092952;28;20024;-72
2022/03/05 05:49:22;;;;;;;14.73;7.53;;;0.10;99.90;;;;;;5092770;28;20035;-72
2022/03/05 05:51:47;;;;;;;12.60;7.40;;;0.20;99.90;;;;;;5074507;28;20038;-72
2022/03/05 05:54:13;;;;;;;11.23;7.22;;;0.10;99.90;;;;;;5057891;28;20101;-72
2022/03/05 05:56:39;;;;;;;14.73;7.55;;;0.10;99.90;;;;;;5092511;28;20028;-72
2022/03/05 05:59:05;;;;;;;10.73;6.85;;;0.10;99.90;;;;;;5053115;28;20388;-72
2022/03/05 06:01:31;;;;;;;11.93;7.18;;;0.00;99.90;;;;;;5076273;28;20032;-72
2022/03/05 06:03:57;;;;;;;11.27;7.13;;;0.00;99.90;;;;;;5092412;28;20047;-72
2022/03/05 06:06:23;;;;;;;12.40;6.90;;;0.00;99.90;;;;;;5092628;28;20048;-72
2022/03/05 06:08:50;;;;;;;13.20;6.75;;;0.00;99.90;;;;;;5092627;28;20383;-72
2022/03/05 06:11:16;;;;;;;13.80;7.68;;;0.00;99.90;;;;;;5074301;28;20072;-72
2022/03/05 06:13:41;;;;;;;12.45;7.28;;;0.00;99.90;;;;;;5074289;28;20040;-72
2022/03/05 06:16:10;;;;;;;13.38;7.28;;;0.00;99.90;;;;;;5091461;28;20040;-72
2022/03/05 06:18:36;;;;;;;17.10;7.25;;;0.00;99.90;;;;;;5090580;28;20344;-72
2022/03/05 06:21:01;;;;;;;12.00;6.93;;;0.00;99.90;;;;;;5074482;28;20069;-72
2022/03/05 06:23:29;;;;;;;12.05;7.15;;;0.00;99.90;;;;;;5091271;28;20392;-72
2022/03/05 06:25:55;;;;;;;11.13;7.65;;;0.00;99.90;;;;;;5092224;28;20047;-72
2022/03/05 06:28:23;;;;;;;12.70;7.57;;;0.00;99.90;;;;;;5092257;28;20043;-72
2022/03/05 06:30:49;;;;;;;11.82;7.68;;;0.00;99.90;;;;;;5068939;28;20052;-72
2022/03/05 06:33:18;;;;;;;13.70;7.65;;;0.00;99.90;;;;;;5086323;28;20133;-72
2022/03/05 06:35:43;;;;;;;10.75;7.35;;;0.00;99.90;;;;;;5074694;28;20040;-72
2022/03/05 06:38:10;;;;;;;12.35;7.70;;;0.10;99.90;;;;;;5094675;28;20055;-72
2022/03/05 06:40:36;;;;;;;12.73;8.07;;;0.10;99.90;;;;;;5076074;28;20044;-72
2022/03/05 06:43:02;;;;;;;11.40;7.20;;;0.20;99.90;;;;;;5096201;28;20417;-72
2022/03/05 06:45:28;;;;;;;11.73;7.65;;;0.10;99.90;;;;;;5077941;28;20047;-72
2022/03/05 06:47:53;;;;;;;15.27;7.13;;;0.10;99.90;;;;;;5095972;28;20047;-72
2022/03/05 06:50:19;;;;;;;13.45;7.57;;;0.10;99.90;;;;;;5048739;28;20446;-72
2022/03/05 06:52:45;;;;;;;12.65;7.93;;;0.10;99.90;;;;;;5093354;28;20134;-72
2022/03/05 06:55:15;;;;;;;11.40;7.50;;;0.20;99.90;;;;;;5095662;28;20040;-72
2022/03/05 06:57:44;;;;;;;16.95;8.50;;;0.20;99.90;;;;;;5089078;28;20114;-72
2022/03/05 07:00:12;;;;;;;12.13;7.35;;;0.20;99.90;;;;;;5078005;28;20503;-72
2022/03/05 07:02:38;;;;;;;13.32;8.00;;;0.20;99.90;;;;;;5072357;28;20115;-72
2022/03/05 07:05:04;;;;;;;21.48;7.70;;;0.30;99.90;;;;;;5057604;28;20472;-73
2022/03/05 07:07:30;;;;;;;15.45;8.00;;;0.30;99.90;;;;;;5057779;28;20048;-72
2022/03/05 07:09:56;;;;;;;12.68;7.47;;;0.30;99.90;;;;;;5093383;28;20039;-72
2022/03/05 07:12:22;;;;;;;13.15;8.50;;;0.30;99.90;;;;;;5076512;28;20458;-72
2022/03/05 07:14:49;;;;;;;11.60;7.40;;;0.30;99.90;;;;;;5094878;28;20027;-74
2022/03/05 07:17:15;;;;;;;14.93;8.30;;;0.30;99.90;;;;;;5077080;28;20433;-75
2022/03/05 07:19:41;;;;;;;12.48;7.63;;;0.40;99.90;;;;;;5075286;28;20156;-71
2022/03/05 07:22:07;;;;;;;14.52;8.73;;;0.40;99.90;;;;;;5074005;28;20036;-71
2022/03/05 07:24:33;;;;;;;16.20;8.55;;;0.40;99.90;;;;;;5057342;28;20089;-71
2022/03/05 07:26:59;;;;;;;17.27;8.32;;;0.40;99.90;;;;;;5092096;28;20111;-71
2022/03/05 07:29:25;;;;;;;12.73;8.20;;;0.50;99.90;;;;;;5094577;28;20115;-70
2022/03/05 07:31:51;;;;;;;13.85;9.05;;;0.50;99.90;;;;;;5090925;28;20039;-71
2022/03/05 07:34:16;;;;;;;14.00;8.52;;;0.50;99.90;;;;;;5081931;28;20051;-70
2022/03/05 07:36:44;;;;;;;17.08;8.75;;;0.60;99.90;;;;;;5093826;28;20052;-72
2022/03/05 07:39:10;;;;;;;12.45;8.48;;;0.60;99.90;;;;;;5076263;28;20036;-71
2022/03/05 07:41:37;;;;;;;14.10;8.48;;;0.70;99.90;;;;;;5076435;28;20039;-72
2022/03/05 07:44:04;;;;;;;12.73;8.38;;;0.70;99.90;;;;;;5093344;28;20040;-74
2022/03/05 07:46:30;;;;;;;14.32;8.70;;;0.80;99.90;;;;;;5094847;28;20036;-74
2022/03/05 07:49:08;;;;;;;14.15;9.45;;;1.30;99.90;;;;;;5075067;28;20519;-74
2022/03/05 07:51:34;;;;;;;20.55;9.75;;;0.90;99.90;;;;;;5094608;28;20040;-72
2022/03/05 07:54:00;;;;;;;14.93;9.25;;;0.90;99.90;;;;;;5092833;28;20461;-72
2022/03/05 07:56:26;;;;;;;14.73;9.45;;;1.00;99.90;;;;;;5094418;28;20122;-74
2022/03/05 07:58:52;;;;;;;15.77;9.35;;;1.00;99.90;;;;;;5086086;28;20032;-73
2022/03/05 08:01:18;;;;;;;16.40;9.20;;;1.10;99.90;;;;;;5057277;28;20411;-73
2022/03/05 08:03:44;;;;;;;17.48;9.75;;;1.10;99.90;;;;;;5075660;28;20097;-74
2022/03/05 08:06:12;;;;;;;16.42;9.55;;;1.20;99.90;;;;;;5059196;28;20051;-73
2022/03/05 08:08:38;;;;;;;14.63;9.82;;;1.20;99.90;;;;;;5075699;28;20035;-75
2022/03/05 08:11:03;;;;;;;13.70;9.18;;;1.30;99.90;;;;;;5072860;28;20396;-74
2022/03/05 08:13:30;;;;;;;19.73;10.32;;;1.30;99.90;;;;;;5055882;28;20048;-74
2022/03/05 08:15:56;;;;;;;16.52;9.93;;;1.30;99.90;;;;;;5076055;28;20039;-74
2022/03/05 08:18:30;;;;;;;18.17;9.73;;;1.40;99.90;;;;;;5068972;28;20068;-74
2022/03/05 08:20:55;;;;;;;16.20;9.45;;;1.40;99.90;;;;;;5052649;28;20105;-79
2022/03/05 08:23:24;;;;;;;17.80;9.73;;;1.50;99.90;;;;;;5047536;28;20040;-73
2022/03/05 08:25:50;;;;;;;15.05;9.93;;;1.50;99.90;;;;;;5059357;28;20453;-74
2022/03/05 08:28:17;;;;;;;14.65;9.07;;;1.60;99.90;;;;;;5094005;28;20051;-73
2022/03/05 08:30:43;;;;;;;16.35;9.98;;;1.60;99.90;;;;;;5059504;28;20169;-74
2022/03/05 08:33:12;;;;;;;16.45;9.55;;;1.60;99.90;;;;;;5075703;28;20392;-75
2022/03/05 08:35:38;;;;;;;16.98;9.88;;;1.70;99.90;;;;;;5058363;28;20041;-77
2022/03/05 08:38:04;;;;;;;18.42;10.40;;;1.80;99.90;;;;;;5093594;28;20403;-76
2022/03/05 08:43:17;;;;;;;18.80;10.10;;;1.80;99.90;;;;;;5011590;28;20048;-81
2022/03/05 08:45:43;;;;;;;17.17;9.80;;;2.10;99.90;;;;;;5053946;28;20036;-76
2022/03/05 08:48:09;;;;;;;17.20;10.05;;;2.00;99.90;;;;;;5042252;28;20036;-80
2022/03/05 08:50:35;;;;;;;20.17;10.60;;;2.50;99.90;;;;;;5054207;28;20089;-76
2022/03/05 08:53:02;;;;;;;20.58;10.90;;;2.10;99.90;;;;;;5054951;28;20207;-82
2022/03/05 08:55:28;;;;;;;15.82;9.93;;;2.30;99.90;;;;;;5030836;28;20435;-78
2022/03/05 08:58:02;;;;;;;19.33;10.80;;;2.00;99.90;;;;;;5058045;28;20047;-76
2022/03/05 09:00:38;;;;;;;19.88;10.75;;;2.10;99.90;;;;;;5060356;28;20033;-75
2022/03/05 09:03:04;;;;;;;14.90;10.05;;;2.30;99.90;;;;;;5055425;28;20074;-73
2022/03/05 09:05:33;;;;;;;16.80;10.18;;;2.20;99.90;;;;;;5088257;28;20068;-77
2022/03/05 09:07:59;;;;;;;17.35;10.13;;;2.40;99.90;;;;;;5058277;28;20040;-75
2022/03/05 09:10:32;;;;;;;17.27;10.57;;;2.30;99.90;;;;;;5055226;28;20032;-76
2022/03/05 09:12:58;;;;;;;20.67;10.63;;;2.30;99.90;;;;;;5047822;28;20049;-78
2022/03/05 09:15:24;;;;;;;20.48;10.52;;;2.40;99.90;;;;;;5056857;28;20097;-76
2022/03/05 09:17:50;;;;;;;23.05;11.77;;;2.40;99.90;;;;;;5071926;28;20032;-75
2022/03/05 09:20:22;;;;;;;16.90;11.48;;;2.50;99.90;;;;;;5075204;28;20042;-75
2022/03/05 09:22:47;;;;;;;22.00;11.65;;;2.80;99.90;;;;;;5074870;28;20123;-74
2022/03/05 09:25:13;;;;;;;23.55;12.30;;;2.70;99.90;;;;;;5074351;28;20068;-71
2022/03/05 09:27:39;;;;;;;24.27;12.50;;;2.70;99.90;;;;;;5057985;28;20082;-71
2022/03/05 09:30:07;;;;;;;23.20;11.90;;;2.70;99.90;;;;;;5087408;28;20562;-71
2022/03/05 09:32:33;;;;;;;30.20;12.07;;;2.80;99.90;;;;;;5089140;28;21093;-71
2022/03/05 09:35:03;;;;;;;22.52;12.00;;;2.80;99.90;;;;;;5085633;28;20468;-71
2022/03/05 09:37:33;;;;;;;21.98;12.80;;;3.10;99.90;;;;;;5072545;28;20071;-73
2022/03/05 09:39:59;;;;;;;22.45;12.65;;;2.80;99.90;;;;;;5092163;28;20044;-72
2022/03/05 09:42:26;;;;;;;22.42;12.10;;;2.90;99.90;;;;;;5071404;28;20052;-71
2022/03/05 09:44:52;;;;;;;21.77;12.57;;;2.90;99.90;;;;;;5056947;28;20469;-73
2022/03/05 09:47:20;;;;;;;25.35;12.68;;;3.00;99.90;;;;;;5074720;28;20392;-73
2022/03/05 09:49:46;;;;;;;22.98;12.65;;;3.00;99.90;;;;;;5074423;28;20039;-72
2022/03/05 09:52:12;;;;;;;23.20;12.55;;;3.00;99.90;;;;;;5092103;28;20058;-72
2022/03/05 09:54:38;;;;;;;27.88;13.50;;;3.10;99.90;;;;;;5091799;28;20299;-72
2022/03/05 09:57:11;;;;;;;26.48;14.00;;;3.20;99.90;;;;;;5074624;28;20116;-71
2022/03/05 09:59:37;;;;;;;25.42;13.43;;;3.20;99.90;;;;;;5068850;28;20180;-72
2022/03/05 10:02:05;;;;;;;20.80;12.50;;;3.20;99.90;;;;;;5067389;28;20127;-72
2022/03/05 10:04:32;;;;;;;21.48;12.85;;;3.50;99.90;;;;;;5073051;28;20043;-72
2022/03/05 10:07:18;;;;;;;24.00;13.10;;;3.20;99.90;;;;;;5072147;28;20028;-72
2022/03/05 10:09:46;;;;;;;22.23;13.03;;;3.30;99.90;;;;;;5070407;28;20118;-72
2022/03/05 10:12:32;;;;;;;23.98;13.48;;;3.40;99.90;;;;;;5057331;28;20667;-72
2022/03/05 10:15:12;;;;;;;22.67;13.18;;;3.40;99.90;;;;;;5069631;28;20059;-72
2022/03/05 10:17:59;;;;;;;22.95;13.05;;;3.50;99.90;;;;;;5078626;28;20040;-72
2022/03/05 10:20:30;;;;;;;20.23;12.68;;;3.50;99.90;;;;;;5058438;28;20044;-72
2022/03/05 10:22:58;;;;;;;25.30;13.85;;;3.50;99.90;;;;;;5060533;28;20055;-72
2022/03/05 10:25:45;;;;;;;22.15;13.23;;;3.60;99.90;;;;;;5096721;28;20086;-72
2022/03/05 10:28:14;;;;;;;21.50;13.38;;;3.60;99.90;;;;;;5096236;28;20047;-72
2022/03/05 10:30:44;;;;;;;25.67;13.95;;;3.70;99.90;;;;;;5096457;28;20032;-72
2022/03/05 10:33:24;;;;;;;29.35;14.52;;;3.70;99.90;;;;;;5078261;28;20074;-72
2022/03/05 10:35:50;;;;;;;24.30;14.82;;;3.70;99.90;;;;;;5095231;28;20079;-71
2022/03/05 10:38:16;;;;;;;30.33;14.05;;;3.80;99.90;;;;;;5095946;28;20088;-72
2022/03/05 10:40:42;;;;;;;21.98;12.50;;;3.90;99.90;;;;;;5095871;28;20076;-72
2022/03/05 10:43:08;;;;;;;27.90;14.20;;;3.90;99.90;;;;;;5096186;28;20535;-74
2022/03/05 10:45:55;;;;;;;22.75;13.70;;;4.10;99.90;;;;;;5095862;28;20083;-72
2022/03/05 10:48:29;;;;;;;20.48;12.52;;;4.00;99.90;;;;;;5077693;28;20594;-72
2022/03/05 10:50:59;;;;;;;24.15;13.52;;;4.10;99.90;;;;;;5095073;28;20078;-72
2022/03/05 10:53:45;;;;;;;24.98;13.63;;;4.10;99.90;;;;;;5055848;28;20045;-72
2022/03/05 10:56:31;;;;;;;19.98;12.20;;;4.10;99.90;;;;;;5093788;28;20054;-71
2022/03/05 10:59:05;;;;;;;23.65;13.85;;;4.20;99.90;;;;;;5057691;28;20072;-72
2022/03/05 11:01:33;;;;;;;26.27;13.85;;;4.30;99.90;;;;;;5075662;28;20399;-72
2022/03/05 11:03:59;;;;;;;25.40;13.52;;;4.30;99.90;;;;;;5040836;28;20048;-72
2022/03/05 11:06:25;;;;;;;26.25;14.23;;;4.50;99.90;;;;;;5083089;28;20036;-71
2022/03/05 11:08:52;;;;;;;25.02;12.80;;;4.40;99.90;;;;;;5077489;28;20503;-72
2022/03/05 11:11:19;;;;;;;22.08;13.27;;;4.40;99.90;;;;;;5095695;28;20089;-72
2022/03/05 11:13:46;;;;;;;24.08;12.27;;;4.50;99.90;;;;;;5095472;28;20392;-72
2022/03/05 11:16:12;;;;;;;21.63;13.15;;;4.50;99.90;;;;;;5095493;28;20027;-72
2022/03/05 11:18:39;;;;;;;21.65;13.20;;;4.50;99.90;;;;;;5077049;28;20472;-72
2022/03/05 11:21:09;;;;;;;22.00;13.05;;;4.50;99.90;;;;;;5060395;28;20040;-72
2022/03/05 11:23:37;;;;;;;24.13;12.70;;;4.50;99.90;;;;;;5076175;28;20093;-72
2022/03/05 11:26:07;;;;;;;26.73;15.15;;;4.50;99.90;;;;;;5077069;28;20247;-72
2022/03/05 11:28:44;;;;;;;31.45;15.60;;;4.60;99.90;;;;;;5095206;28;20044;-72
2022/03/05 11:31:18;;;;;;;42.92;19.58;;;4.60;99.90;;;;;;5077529;28;20048;-72
2022/03/05 11:33:45;;;;;;;39.67;19.23;;;4.60;99.90;;;;;;5077444;28;20040;-72
2022/03/05 11:36:32;;;;;;;35.90;20.50;;;4.70;99.90;;;;;;5077438;28;20051;-72
2022/03/05 11:39:22;;;;;;;36.55;19.50;;;5.00;99.90;;;;;;5092787;28;20044;-72
2022/03/05 11:41:51;;;;;;;35.92;20.38;;;4.80;99.90;;;;;;5095035;28;20093;-72
2022/03/05 11:44:18;;;;;;;32.25;17.92;;;4.80;99.90;;;;;;5076826;28;20047;-72
2022/03/05 11:46:44;;;;;;;25.77;16.13;;;5.00;99.90;;;;;;5060179;28;20181;-72
2022/03/05 11:49:12;;;;;;;26.95;15.93;;;5.00;99.90;;;;;;5094942;28;20511;-72
2022/03/05 11:51:56;;;;;;;27.80;16.20;;;4.80;99.90;;;;;;5094741;28;20432;-72
2022/03/05 11:54:22;;;;;;;27.08;15.88;;;4.90;99.90;;;;;;5095122;28;20044;-72
2022/03/05 11:57:14;;;;;;;28.65;17.05;;;4.90;99.90;;;;;;5066402;28;20060;-72
2022/03/05 11:59:51;;;;;;;30.48;18.10;;;5.00;99.90;;;;;;5094099;28;20040;-72
2022/03/05 12:02:56;;;;;;;30.40;18.30;;;5.00;99.90;;;;;;5076398;28;20115;-72
2022/03/05 12:05:44;;;;;;;27.35;15.98;;;5.00;99.90;;;;;;5019038;28;20065;-72
2022/03/05 12:08:30;;;;;;;27.73;15.52;;;5.10;99.90;;;;;;5069558;28;20599;-72
2022/03/05 12:11:09;;;;;;;28.80;16.60;;;5.30;99.90;;;;;;5049256;28;20048;-74
2022/03/05 12:13:41;;;;;;;26.63;15.73;;;5.20;99.90;;;;;;5076756;28;20165;-74
2022/03/05 12:16:43;;;;;;;27.50;14.43;;;5.10;99.90;;;;;;5093096;28;20036;-74
2022/03/05 12:19:09;;;;;;;21.25;12.85;;;5.30;99.90;;;;;;5094287;28;20036;-74
2022/03/05 12:21:35;;;;;;;24.60;14.10;;;5.30;99.90;;;;;;5093998;28;20036;-74
2022/03/05 12:24:09;;;;;;;24.85;15.85;;;5.30;99.90;;;;;;5075941;28;20404;-74
2022/03/05 12:26:40;;;;;;;26.20;15.32;;;5.40;99.90;;;;;;5072515;28;20056;-74
2022/03/05 12:29:07;;;;;;;30.13;16.38;;;5.40;99.90;;;;;;5055998;28;20052;-72
2022/03/05 12:31:37;;;;;;;23.70;15.27;;;5.50;99.90;;;;;;5045696;28;20128;-72
2022/03/05 12:34:03;;;;;;;22.98;15.13;;;5.60;99.90;;;;;;5057140;28;20047;-72
2022/03/05 12:36:31;;;;;;;22.88;14.35;;;5.50;99.90;;;;;;5055533;28;20036;-74
2022/03/05 12:39:04;;;;;;;28.40;16.23;;;5.50;99.90;;;;;;5073444;28;20040;-72
2022/03/05 12:41:30;;;;;;;29.30;17.85;;;5.70;99.90;;;;;;5059316;28;20032;-74
2022/03/05 12:43:56;;;;;;;26.98;16.17;;;5.50;99.90;;;;;;5075613;28;20429;-74
2022/03/05 12:46:22;;;;;;;24.95;15.52;;;5.60;99.90;;;;;;5075546;28;20131;-74
2022/03/05 12:48:48;;;;;;;27.45;16.95;;;5.50;99.90;;;;;;5074814;28;20043;-74